createdAt,value
2018-05-16T00:01:48.241Z,18.55
2018-05-16T00:04:14.837Z,18.59
2018-05-16T00:06:41.531Z,18.61
2018-05-16T00:09:08.080Z,18.57
2018-05-16T00:11:34.629Z,18.50
2018-05-16T00:14:01.378Z,18.37
2018-05-16T00:16:28.204Z,18.29
2018-05-16T00:18:54.791Z,18.25
2018-05-16T00:21:21.421Z,18.25
2018-05-16T00:23:48.025Z,18.22
2018-05-16T00:26:14.645Z,18.27
2018-05-16T00:28:41.280Z,18.21
2018-05-16T00:31:07.925Z,18.21
2018-05-16T00:33:34.684Z,18.32
2018-05-16T00:36:01.140Z,18.26
2018-05-16T00:38:27.909Z,18.22
2018-05-16T00:40:54.602Z,18.20
2018-05-16T00:43:21.238Z,18.20
2018-05-16T00:45:47.952Z,18.20
2018-05-16T00:48:14.480Z,18.21
2018-05-16T00:50:53.197Z,18.16
2018-05-16T00:53:19.849Z,18.08
2018-05-16T00:55:46.578Z,17.98
2018-05-16T00:58:13.365Z,17.97
2018-05-16T01:00:39.982Z,17.85
2018-05-16T01:03:06.618Z,17.72
2018-05-16T01:05:33.284Z,17.45
2018-05-16T01:07:59.870Z,17.36
2018-05-16T01:10:26.400Z,17.16
2018-05-16T01:12:53.028Z,16.93
2018-05-16T01:15:20.041Z,16.84
2018-05-16T01:17:46.626Z,16.86
2018-05-16T01:20:13.224Z,16.92
2018-05-16T01:22:39.858Z,16.88
2018-05-16T01:25:06.425Z,16.87
2018-05-16T01:27:33.132Z,16.88
2018-05-16T01:29:59.733Z,16.96
2018-05-16T01:32:26.496Z,17.06
2018-05-16T01:34:53.171Z,16.98
2018-05-16T01:37:19.773Z,16.81
2018-05-16T01:39:46.313Z,16.83
2018-05-16T01:42:13.149Z,16.76
2018-05-16T01:44:39.852Z,16.70
2018-05-16T01:47:06.464Z,16.58
2018-05-16T01:49:33.055Z,16.48
2018-05-16T01:51:59.598Z,16.35
2018-05-16T01:54:26.486Z,16.40
2018-05-16T01:56:53.129Z,16.34
2018-05-16T01:59:19.829Z,16.26
2018-05-16T02:01:46.414Z,16.38
2018-05-16T02:04:13.058Z,16.44
2018-05-16T02:06:39.641Z,16.35
2018-05-16T02:09:06.130Z,16.15
2018-05-16T02:11:32.738Z,16.07
2018-05-16T02:13:59.327Z,16.11
2018-05-16T02:16:25.980Z,16.17
2018-05-16T02:18:52.661Z,16.02
2018-05-16T02:21:19.319Z,16.04
2018-05-16T02:23:45.998Z,15.99
2018-05-16T02:26:12.749Z,15.98
2018-05-16T02:28:39.353Z,16.09
2018-05-16T02:31:06.005Z,16.23
2018-05-16T02:33:32.608Z,16.18
2018-05-16T02:35:59.570Z,16.19
2018-05-16T02:38:26.156Z,16.12
2018-05-16T02:40:52.759Z,16.08
2018-05-16T02:43:19.419Z,16.05
2018-05-16T02:45:46.102Z,16.10
2018-05-16T02:48:12.958Z,15.94
2018-05-16T02:50:39.566Z,15.97
2018-05-16T02:53:06.136Z,15.98
2018-05-16T02:55:32.824Z,16.01
2018-05-16T02:57:59.417Z,16.06
2018-05-16T03:00:26.077Z,15.92
2018-05-16T03:02:52.744Z,15.88
2018-05-16T03:05:19.418Z,15.83
2018-05-16T03:07:46.016Z,15.77
2018-05-16T03:10:12.793Z,15.79
2018-05-16T03:12:39.560Z,15.85
2018-05-16T03:15:06.288Z,15.86
2018-05-16T03:17:33.057Z,15.89
2018-05-16T03:20:00.050Z,15.92
2018-05-16T03:22:26.604Z,15.98
2018-05-16T03:24:53.248Z,16.01
2018-05-16T03:27:20.023Z,15.96
2018-05-16T03:29:46.840Z,15.94
2018-05-16T03:32:13.485Z,15.86
2018-05-16T03:34:40.210Z,15.89
2018-05-16T03:37:06.817Z,15.77
2018-05-16T03:39:33.478Z,15.72
2018-05-16T03:42:00.242Z,15.66
2018-05-16T03:44:27.124Z,15.65
2018-05-16T03:46:53.744Z,15.62
2018-05-16T03:49:20.321Z,15.63
2018-05-16T03:51:46.922Z,15.52
2018-05-16T03:54:13.716Z,15.42
2018-05-16T03:56:40.365Z,15.52
2018-05-16T03:59:19.068Z,15.59
2018-05-16T04:01:57.835Z,15.65
2018-05-16T04:04:24.560Z,15.78
2018-05-16T04:06:51.172Z,15.79
2018-05-16T04:09:18.104Z,15.88
2018-05-16T04:11:44.676Z,15.93
2018-05-16T04:14:11.292Z,16.04
2018-05-16T04:16:37.837Z,16.10
2018-05-16T04:19:04.401Z,16.21
2018-05-16T04:21:30.912Z,16.23
2018-05-16T04:23:57.517Z,16.24
2018-05-16T04:29:16.411Z,16.41
2018-05-16T04:31:42.975Z,16.50
2018-05-16T04:34:09.572Z,16.66
2018-05-16T04:36:36.097Z,16.73
2018-05-16T04:39:02.845Z,16.77
2018-05-16T04:41:29.520Z,16.81
2018-05-16T04:43:56.797Z,16.67
2018-05-16T04:46:23.443Z,16.56
2018-05-16T04:48:51.026Z,16.53
2018-05-16T04:51:17.556Z,16.50
2018-05-16T04:53:44.353Z,16.51
2018-05-16T04:56:10.968Z,16.59
2018-05-16T04:58:37.751Z,16.52
2018-05-16T05:01:04.505Z,16.60
2018-05-16T05:03:31.071Z,16.52
2018-05-16T05:05:57.735Z,16.57
2018-05-16T05:08:24.175Z,16.57
2018-05-16T05:10:51.357Z,16.72
2018-05-16T05:13:18.025Z,16.84
2018-05-16T05:15:44.839Z,16.90
2018-05-16T05:18:11.555Z,17.03
2018-05-16T05:20:38.020Z,17.08
2018-05-16T05:23:04.666Z,17.22
2018-05-16T05:25:31.329Z,17.52
2018-05-16T05:27:58.394Z,17.74
2018-05-16T05:30:25.409Z,17.88
2018-05-16T05:32:51.996Z,17.95
2018-05-16T05:35:18.902Z,18.00
2018-05-16T05:37:45.939Z,18.12
2018-05-16T05:40:12.500Z,18.32
2018-05-16T05:42:39.301Z,18.49
2018-05-16T05:45:05.992Z,18.50
2018-05-16T05:47:32.537Z,18.51
2018-05-16T05:49:59.358Z,18.51
2018-05-16T05:52:26.366Z,18.64
2018-05-16T05:54:52.970Z,18.72
2018-05-16T05:57:19.638Z,18.90
2018-05-16T05:59:46.371Z,18.97
2018-05-16T06:02:13.097Z,19.07
2018-05-16T06:04:39.736Z,19.18
2018-05-16T06:07:06.620Z,19.28
2018-05-16T06:09:33.157Z,19.33
2018-05-16T06:11:59.794Z,19.21
2018-05-16T06:14:26.466Z,19.22
2018-05-16T06:16:53.053Z,19.23
2018-05-16T06:19:19.700Z,19.28
2018-05-16T06:21:46.662Z,19.37
2018-05-16T06:24:13.499Z,19.34
2018-05-16T06:26:40.030Z,19.26
2018-05-16T06:29:06.625Z,19.33
2018-05-16T06:31:33.255Z,19.39
2018-05-16T06:33:59.766Z,19.41
2018-05-16T06:36:26.373Z,19.46
2018-05-16T06:38:53.098Z,19.52
2018-05-16T06:41:19.564Z,19.50
2018-05-16T06:43:46.040Z,19.45
2018-05-16T06:46:12.597Z,19.49
2018-05-16T06:48:39.049Z,19.54
2018-05-16T06:51:05.542Z,19.52
2018-05-16T06:53:32.000Z,19.57
2018-05-16T06:55:58.668Z,19.54
2018-05-16T06:58:25.214Z,19.52
2018-05-16T07:00:51.867Z,19.60
2018-05-16T07:03:18.436Z,19.65
2018-05-16T07:05:45.031Z,19.67
2018-05-16T07:08:11.535Z,19.74
2018-05-16T07:10:37.978Z,19.81
2018-05-16T07:13:04.435Z,19.90
2018-05-16T07:15:30.892Z,19.92
2018-05-16T07:17:57.500Z,19.87
2018-05-16T07:20:24.010Z,19.87
2018-05-16T07:22:50.515Z,19.88
2018-05-16T07:25:17.172Z,19.87
2018-05-16T07:27:43.694Z,19.90
2018-05-16T07:30:10.351Z,20.03
2018-05-16T07:32:37.051Z,20.13
2018-05-16T07:35:03.744Z,20.12
2018-05-16T07:37:30.431Z,20.20
2018-05-16T07:39:57.005Z,20.16
2018-05-16T07:42:23.553Z,20.07
2018-05-16T07:44:50.101Z,20.01
2018-05-16T07:47:16.627Z,20.11
2018-05-16T07:49:43.283Z,20.21
2018-05-16T07:52:09.861Z,20.25
2018-05-16T07:54:36.364Z,20.31
2018-05-16T07:57:03.098Z,20.40
2018-05-16T07:59:29.607Z,20.45
2018-05-16T08:01:56.071Z,20.42
2018-05-16T08:04:22.770Z,20.50
2018-05-16T08:06:49.352Z,20.40
2018-05-16T08:09:15.965Z,20.35
2018-05-16T08:11:42.525Z,20.35
2018-05-16T08:14:09.209Z,20.47
2018-05-16T08:16:35.834Z,20.45
2018-05-16T08:19:02.348Z,20.51
2018-05-16T08:21:28.999Z,20.41
2018-05-16T08:23:55.604Z,20.36
2018-05-16T08:26:22.394Z,20.35
2018-05-16T08:28:48.932Z,20.47
2018-05-16T08:31:22.697Z,20.56
2018-05-16T08:33:49.159Z,20.60
2018-05-16T08:36:15.700Z,20.60
2018-05-16T08:38:42.135Z,20.68
2018-05-16T08:41:08.577Z,20.74
2018-05-16T08:43:35.098Z,20.79
2018-05-16T08:46:01.668Z,20.84
2018-05-16T08:48:28.216Z,20.84
2018-05-16T08:50:54.784Z,20.82
2018-05-16T08:53:21.436Z,20.94
2018-05-16T08:55:47.987Z,20.90
2018-05-16T08:58:14.541Z,20.98
2018-05-16T09:00:41.269Z,21.00
2018-05-16T09:03:07.913Z,21.04
2018-05-16T09:05:34.368Z,20.97
2018-05-16T09:08:00.949Z,21.08
2018-05-16T09:10:27.546Z,21.21
2018-05-16T09:12:54.064Z,21.38
2018-05-16T09:15:20.694Z,21.37
2018-05-16T09:17:47.174Z,21.43
2018-05-16T09:20:13.681Z,21.52
2018-05-16T09:22:40.300Z,21.48
2018-05-16T09:25:06.943Z,21.43
2018-05-16T09:27:33.705Z,21.47
2018-05-16T09:30:00.503Z,21.53
2018-05-16T09:32:27.144Z,21.64
2018-05-16T09:34:53.840Z,21.74
2018-05-16T09:37:20.347Z,21.91
2018-05-16T09:39:46.940Z,22.05
2018-05-16T09:42:13.654Z,22.23
2018-05-16T09:44:40.339Z,22.30
2018-05-16T09:47:06.979Z,22.34
2018-05-16T09:49:33.730Z,22.31
2018-05-16T09:52:00.346Z,22.28
2018-05-16T09:54:26.963Z,22.29
2018-05-16T09:56:53.707Z,22.36
2018-05-16T09:59:27.176Z,22.25
2018-05-16T10:01:53.863Z,22.28
2018-05-16T10:04:20.488Z,22.34
2018-05-16T10:06:46.985Z,22.49
2018-05-16T10:09:13.533Z,22.58
2018-05-16T10:11:40.045Z,22.54
2018-05-16T10:14:06.672Z,22.59
2018-05-16T10:16:33.185Z,22.64
2018-05-16T10:18:59.653Z,22.71
2018-05-16T10:21:26.325Z,22.67
2018-05-16T10:23:53.120Z,22.71
2018-05-16T10:26:19.704Z,22.79
2018-05-16T10:28:46.244Z,22.82
2018-05-16T10:31:12.670Z,22.90
2018-05-16T10:33:39.296Z,23.04
2018-05-16T10:36:05.893Z,23.09
2018-05-16T10:38:32.357Z,23.12
2018-05-16T10:40:58.917Z,23.20
2018-05-16T10:43:25.414Z,23.25
2018-05-16T10:45:52.080Z,23.27
2018-05-16T10:48:18.521Z,23.24
2018-05-16T10:50:45.250Z,23.27
2018-05-16T10:53:11.894Z,23.35
2018-05-16T10:55:38.497Z,23.38
2018-05-16T10:58:05.040Z,23.42
2018-05-16T11:00:32.423Z,23.46
2018-05-16T11:02:59.157Z,23.47
2018-05-16T11:05:25.784Z,23.47
2018-05-16T11:07:52.490Z,23.48
2018-05-16T11:10:19.000Z,23.54
2018-05-16T11:12:45.704Z,23.57
2018-05-16T11:15:19.345Z,23.54
2018-05-16T11:17:45.896Z,23.57
2018-05-16T11:20:12.334Z,23.68
2018-05-16T11:22:39.005Z,23.66
2018-05-16T11:25:05.590Z,23.71
2018-05-16T11:27:32.278Z,23.71
2018-05-16T11:29:58.978Z,23.59
2018-05-16T11:32:25.700Z,23.56
2018-05-16T11:34:52.372Z,23.56
2018-05-16T11:37:19.157Z,23.58
2018-05-16T11:39:45.665Z,23.62
2018-05-16T11:42:12.249Z,23.62
2018-05-16T11:44:38.871Z,23.63
2018-05-16T11:49:31.473Z,23.62
2018-05-16T11:51:58.130Z,23.65
2018-05-16T11:54:24.779Z,23.72
2018-05-16T11:56:51.434Z,23.74
2018-05-16T11:59:18.269Z,23.71
2018-05-16T12:01:45.015Z,23.77
2018-05-16T12:04:11.556Z,23.77
2018-05-16T12:06:38.221Z,23.85
2018-05-16T12:09:04.983Z,23.90
2018-05-16T12:11:31.738Z,23.88
2018-05-16T12:13:58.385Z,23.85
2018-05-16T12:16:25.066Z,23.86
2018-05-16T12:18:51.734Z,23.93
2018-05-16T12:21:18.256Z,23.93
2018-05-16T12:23:45.016Z,23.98
2018-05-16T12:26:11.518Z,23.95
2018-05-16T12:28:38.242Z,23.97
2018-05-16T12:31:04.982Z,23.96
2018-05-16T12:33:31.606Z,23.97
2018-05-16T12:35:58.361Z,24.01
2018-05-16T12:38:24.972Z,24.07
2018-05-16T12:40:51.813Z,24.06
2018-05-16T12:43:18.566Z,24.10
2018-05-16T12:45:45.299Z,24.12
2018-05-16T12:48:11.860Z,24.23
2018-05-16T12:58:54.603Z,24.10
2018-05-16T13:01:21.290Z,24.01
2018-05-16T13:03:48.136Z,23.99
2018-05-16T13:06:14.865Z,24.07
2018-05-16T13:08:41.401Z,24.13
2018-05-16T13:11:08.015Z,24.15
2018-05-16T13:13:34.733Z,24.19
2018-05-16T13:16:01.464Z,24.20
2018-05-16T13:18:27.969Z,24.24
2018-05-16T13:20:54.581Z,24.27
2018-05-16T13:23:21.215Z,24.26
2018-05-16T13:25:47.955Z,24.34
2018-05-16T13:28:14.636Z,24.36
2018-05-16T13:30:41.260Z,24.41
2018-05-16T13:33:07.893Z,24.40
2018-05-16T13:35:34.531Z,24.45
2018-05-16T13:38:01.101Z,24.46
2018-05-16T13:40:27.952Z,24.46
2018-05-16T13:42:54.540Z,24.37
2018-05-16T13:45:21.116Z,24.40
2018-05-16T13:47:47.689Z,24.38
2018-05-16T13:50:14.452Z,24.45
2018-05-16T13:52:41.001Z,24.43
2018-05-16T13:55:07.605Z,24.51
2018-05-16T13:57:34.225Z,24.42
2018-05-16T14:00:00.883Z,24.37
2018-05-16T14:02:27.396Z,24.37
2018-05-16T14:04:54.076Z,24.38
2018-05-16T14:07:20.668Z,24.33
2018-05-16T14:09:47.245Z,24.38
2018-05-16T14:12:13.855Z,24.36
2018-05-16T14:14:40.545Z,24.36
2018-05-16T14:17:07.209Z,24.36
2018-05-16T14:19:33.767Z,24.40
2018-05-16T14:22:00.375Z,24.48
2018-05-16T14:24:26.912Z,24.47
2018-05-16T14:26:53.479Z,24.45
2018-05-16T14:29:19.960Z,24.48
2018-05-16T14:34:19.869Z,24.60
2018-05-16T14:36:46.549Z,24.66
2018-05-16T14:39:13.245Z,24.68
2018-05-16T14:41:39.897Z,24.70
2018-05-16T14:44:06.495Z,24.70
2018-05-16T14:46:33.117Z,24.69
2018-05-16T14:48:59.746Z,24.73
2018-05-16T14:51:26.419Z,24.68
2018-05-16T14:53:53.022Z,24.70
2018-05-16T14:56:19.619Z,24.69
2018-05-16T14:58:46.353Z,24.61
2018-05-16T15:01:12.942Z,24.57
2018-05-16T15:03:39.626Z,24.57
2018-05-16T15:06:06.330Z,24.56
2018-05-16T15:08:33.197Z,24.63
2018-05-16T15:11:03.932Z,24.62
2018-05-16T15:13:31.000Z,24.65
2018-05-16T15:15:57.633Z,24.67
2018-05-16T15:18:24.180Z,24.69
2018-05-16T15:20:50.843Z,24.71
2018-05-16T15:23:17.479Z,24.75
2018-05-16T15:25:45.029Z,24.73
2018-05-16T15:28:11.611Z,24.71
2018-05-16T15:30:38.244Z,24.71
2018-05-16T15:33:04.938Z,24.67
2018-05-16T15:35:31.525Z,24.66
2018-05-16T15:48:43.393Z,24.66
2018-05-16T15:51:10.005Z,24.69
2018-05-16T15:53:36.614Z,24.59
2018-05-16T15:56:03.221Z,24.61
2018-05-16T15:58:29.764Z,24.55
2018-05-16T16:00:56.543Z,24.56
2018-05-16T16:03:23.110Z,24.59
2018-05-16T16:05:49.863Z,24.68
2018-05-16T16:08:16.434Z,24.66
2018-05-16T16:10:42.994Z,24.64
2018-05-16T16:13:09.577Z,24.68
2018-05-16T16:15:36.169Z,24.73
2018-05-16T16:18:02.718Z,24.71
2018-05-16T16:20:29.290Z,24.66
2018-05-16T16:22:55.788Z,24.67
2018-05-16T16:25:22.464Z,24.63
2018-05-16T16:27:48.967Z,24.56
2018-05-16T16:30:15.580Z,24.51
2018-05-16T16:32:42.202Z,24.51
2018-05-16T16:35:08.928Z,24.51
2018-05-16T16:37:35.427Z,24.47
2018-05-16T16:40:02.300Z,24.47
2018-05-16T16:42:29.393Z,24.47
2018-05-16T16:44:58.084Z,24.47
2018-05-16T16:47:25.401Z,24.53
2018-05-16T16:49:52.089Z,24.49
2018-05-16T16:52:20.709Z,24.41
2018-05-16T16:54:50.581Z,24.36
2018-05-16T16:57:17.334Z,24.21
2018-05-16T16:59:43.948Z,24.10
2018-05-16T17:02:10.456Z,24.04
2018-05-16T17:04:36.990Z,23.95
2018-05-16T17:07:03.662Z,23.83
2018-05-16T17:09:30.229Z,23.77
2018-05-16T17:11:56.824Z,23.72
2018-05-16T17:14:23.392Z,23.69
2018-05-16T17:16:49.961Z,23.62
2018-05-16T17:19:16.564Z,23.54
2018-05-16T17:21:44.215Z,23.39
2018-05-16T17:24:11.121Z,23.25
2018-05-16T17:26:37.795Z,23.18
2018-05-16T17:29:04.371Z,23.18
2018-05-16T17:31:30.896Z,23.13
2018-05-16T17:33:57.483Z,23.01
2018-05-16T17:36:24.017Z,23.00
2018-05-16T17:38:50.615Z,22.92
2018-05-16T17:41:17.213Z,22.86
2018-05-16T17:49:19.765Z,22.67
2018-05-16T17:51:47.007Z,22.65
2018-05-16T17:54:13.665Z,22.69
2018-05-16T17:56:40.248Z,22.64
2018-05-16T17:59:06.859Z,22.64
2018-05-16T18:01:33.531Z,22.63
2018-05-16T18:04:00.131Z,22.61
2018-05-16T18:06:26.715Z,22.57
2018-05-16T18:08:53.379Z,22.53
2018-05-16T18:11:20.073Z,22.44
2018-05-16T18:13:59.548Z,22.42
2018-05-16T18:16:39.203Z,22.37
2018-05-16T18:19:05.809Z,22.32
2018-05-16T18:21:32.404Z,22.21
2018-05-16T18:23:59.049Z,22.18
2018-05-16T18:26:25.776Z,22.15
2018-05-16T18:28:52.453Z,22.12
2018-05-16T18:31:19.196Z,22.09
2018-05-16T18:33:45.817Z,22.07
2018-05-16T18:36:12.346Z,21.99
2018-05-16T18:38:39.054Z,21.91
2018-05-16T18:41:05.611Z,21.85
2018-05-16T18:43:32.209Z,21.83
2018-05-16T18:45:58.760Z,21.84
2018-05-16T18:48:25.256Z,21.76
2018-05-16T18:50:51.817Z,21.74
2018-05-16T18:53:18.467Z,21.69
2018-05-16T18:55:45.093Z,21.63
2018-05-16T18:58:11.600Z,21.55
2018-05-16T19:00:38.285Z,21.46
2018-05-16T19:03:04.967Z,21.37
2018-05-16T19:05:31.544Z,21.34
2018-05-16T19:07:58.079Z,21.36
2018-05-16T19:10:24.680Z,21.22
2018-05-16T19:12:51.441Z,21.23
2018-05-16T19:15:19.036Z,21.00
2018-05-16T19:17:45.609Z,20.99
2018-05-16T19:20:12.312Z,21.00
2018-05-16T19:22:38.884Z,21.04
2018-05-16T19:25:05.813Z,20.99
2018-05-16T19:27:32.625Z,20.99
2018-05-16T19:29:59.143Z,20.92
2018-05-16T19:32:25.770Z,20.87
2018-05-16T19:34:52.416Z,20.83
2018-05-16T19:37:19.127Z,20.82
2018-05-16T19:39:47.515Z,20.74
2018-05-16T19:42:17.258Z,20.68
2018-05-16T19:44:43.877Z,20.70
2018-05-16T19:47:10.623Z,20.71
2018-05-16T19:49:37.152Z,20.75
2018-05-16T19:52:03.926Z,20.69
2018-05-16T19:54:30.640Z,20.65
2018-05-16T19:56:57.192Z,20.61
2018-05-16T19:59:23.787Z,20.59
2018-05-16T20:01:50.461Z,20.56
2018-05-16T20:04:17.286Z,20.46
2018-05-16T20:06:43.873Z,20.46
2018-05-16T20:09:10.539Z,20.43
2018-05-16T20:11:37.701Z,20.43
2018-05-16T20:14:04.312Z,20.40
2018-05-16T20:16:30.903Z,20.24
2018-05-16T20:18:57.901Z,20.12
2018-05-16T20:21:24.539Z,20.10
2018-05-16T20:23:51.366Z,20.02
2018-05-16T20:26:17.908Z,20.02
2018-05-16T20:28:44.676Z,20.01
2018-05-16T20:31:11.259Z,19.99
2018-05-16T20:33:37.724Z,19.94
2018-05-16T20:36:04.270Z,19.94
2018-05-16T20:38:30.900Z,19.91
2018-05-16T20:40:57.664Z,19.90
2018-05-16T20:43:24.252Z,19.95
2018-05-16T20:45:50.847Z,19.98
2018-05-16T20:48:17.368Z,19.95
2018-05-16T20:50:44.043Z,19.95
2018-05-16T20:53:10.789Z,19.92
2018-05-16T20:55:37.385Z,19.89
2018-05-16T20:58:04.222Z,19.90
2018-05-16T21:00:30.761Z,19.88
2018-05-16T21:02:57.616Z,19.91
2018-05-16T21:05:24.542Z,19.91
2018-05-16T21:07:51.250Z,19.90
2018-05-16T21:10:17.831Z,19.88
2018-05-16T21:12:44.493Z,19.88
2018-05-16T21:15:11.278Z,19.87
2018-05-16T21:17:37.773Z,19.86
2018-05-16T21:20:04.591Z,19.81
2018-05-16T21:22:31.111Z,19.80
2018-05-16T21:24:57.708Z,19.83
2018-05-16T21:27:24.356Z,19.83
2018-05-16T21:29:51.048Z,19.87
2018-05-16T21:32:17.853Z,19.82
2018-05-16T21:34:44.458Z,19.74
2018-05-16T21:37:11.116Z,19.68
2018-05-16T21:39:37.816Z,19.61
2018-05-16T21:42:04.445Z,19.55
2018-05-16T21:44:31.289Z,19.58
2018-05-16T21:46:57.859Z,19.55
2018-05-16T21:49:24.458Z,19.54
2018-05-16T21:51:51.008Z,19.50
2018-05-16T21:54:17.704Z,19.52
2018-05-16T21:56:44.286Z,19.57
2018-05-16T21:59:17.951Z,19.57
2018-05-16T22:01:44.442Z,19.59
2018-05-16T22:04:11.205Z,19.55
2018-05-16T22:06:37.780Z,19.50
2018-05-16T22:09:05.223Z,19.51
2018-05-16T22:11:31.759Z,19.46
2018-05-16T22:13:58.412Z,19.42
2018-05-16T22:16:24.889Z,19.38
2018-05-16T22:18:51.572Z,19.39
2018-05-16T22:21:18.100Z,19.46
2018-05-16T22:23:44.703Z,19.41
2018-05-16T22:26:11.178Z,19.42
2018-05-16T22:28:37.732Z,19.45
2018-05-16T22:31:10.461Z,19.40
2018-05-16T22:33:42.999Z,19.38
2018-05-16T22:36:15.792Z,19.30
2018-05-16T22:38:48.199Z,19.27
2018-05-16T22:41:20.895Z,19.27
2018-05-16T22:46:30.469Z,19.31
2018-05-16T22:48:57.127Z,19.29
2018-05-16T22:51:23.847Z,19.32
2018-05-16T22:53:50.496Z,19.26
2018-05-16T22:56:16.967Z,19.25
2018-05-16T22:58:43.535Z,19.23
2018-05-16T23:01:16.946Z,19.14
2018-05-16T23:03:43.420Z,19.03
2018-05-16T23:06:09.900Z,19.01
2018-05-16T23:08:36.613Z,19.03
2018-05-16T23:11:03.167Z,18.97
2018-05-16T23:13:29.793Z,18.95
2018-05-16T23:15:56.324Z,18.88
2018-05-16T23:18:22.956Z,18.79
2018-05-16T23:20:49.646Z,18.76
2018-05-16T23:23:16.278Z,18.77
2018-05-16T23:25:42.924Z,18.84
2018-05-16T23:28:09.847Z,18.85
2018-05-16T23:30:36.533Z,18.83
2018-05-16T23:33:03.328Z,18.68
2018-05-16T23:35:30.015Z,18.70
2018-05-16T23:37:56.631Z,18.72
2018-05-16T23:40:23.279Z,18.79
2018-05-16T23:42:50.196Z,18.78
2018-05-16T23:45:16.813Z,18.87
2018-05-16T23:47:43.529Z,18.93
2018-05-16T23:50:10.132Z,18.93
2018-05-16T23:52:36.890Z,18.94
2018-05-16T23:55:03.612Z,18.90
2018-05-16T23:57:30.256Z,18.92
2018-05-16T23:59:56.741Z,18.88
